Errol, New Hampshire
Current Conditions -  °F | °C
As of 9:52 AM on Thursday 18 Dec 2014 (Local Time) from KBML Reporting Station
Overcast Overcast  
Wind Chill: 26°   Ceiling: 2300
Heat Index: 32°   Visibility: 10mi
Dew Point: 26°   Wind: 7mph
Humidity: 79%   Direction: 300°WNW
Pressure: 29.71"   Gusts: NA
Location:  44.79°N, 71.14°W
Report Text: KBML 181452Z AUTO 30006KT 10SM OVC023 00/M03 A2971 RMK AO2 SNE03 SLP073 P0000 60000 T00001033 53016
Loading
Personal Weather Stations






























Interactive Weather Map New forecast layout! Learn more

10-Day Weather Forecast

Advertisements
Track Severe Weather on mobile